Time;durP1;ratioP1;P1;durP2;ratioP2;P2;SDS_P1;SDS_P2;PMS_P1;PMS_P2;Temp;Humidity;BMP_temperature;BMP_pressure;BME280_temperature;BME280_humidity;BME280_pressure;Samples;Min_cycle;Max_cycle;Signal;HPM_P1;HPM_P2
2022/11/16 00:00:31;;;;;;;64.60;15.13;;;;;;;4.11;86.87;93139.44;5092478;28;20027;-34
2022/11/16 00:02:56;;;;;;;44.65;14.63;;;;;;;4.08;87.25;93145.91;5092310;28;20032;-34
2022/11/16 00:05:22;;;;;;;44.35;14.50;;;;;;;4.19;87.17;93147.78;5092290;28;20020;-34
2022/11/16 00:07:47;;;;;;;42.80;14.90;;;;;;;4.23;86.32;93134.56;5092256;28;20472;-34
2022/11/16 00:10:13;;;;;;;60.42;14.43;;;;;;;4.22;86.04;93139.28;5092126;28;20016;-34
2022/11/16 00:12:38;;;;;;;50.78;14.60;;;;;;;4.15;85.93;93145.34;5092049;28;20036;-34
2022/11/16 00:15:06;;;;;;;70.85;14.52;;;;;;;4.16;85.87;93146.81;5092146;28;20024;-34
2022/11/16 00:17:32;;;;;;;52.47;13.48;;;;;;;4.16;85.98;93146.81;5092063;28;20020;-34
2022/11/16 00:19:57;;;;;;;57.88;14.88;;;;;;;4.05;86.09;93138.00;5091770;28;20017;-34
2022/11/16 00:22:26;;;;;;;76.03;15.82;;;;;;;3.84;86.59;93143.19;5091616;28;20035;-34
2022/11/16 00:24:51;;;;;;;61.77;14.57;;;;;;;3.96;86.79;93150.03;5091279;28;20063;-34
2022/11/16 00:27:19;;;;;;;48.72;14.00;;;;;;;3.97;86.25;93148.75;5091895;28;20047;-34
2022/11/16 00:29:46;;;;;;;46.33;14.48;;;;;;;3.79;86.65;93143.97;5091702;28;20135;-34
2022/11/16 00:32:11;;;;;;;62.63;17.15;;;;;;;3.80;86.95;93135.28;5091699;28;20420;-33
2022/11/16 00:34:38;;;;;;;59.35;14.70;;;;;;;3.84;86.93;93132.28;5091263;28;20024;-34
2022/11/16 00:37:04;;;;;;;98.47;16.63;;;;;;;3.85;86.99;93133.75;5090599;28;20024;-34
2022/11/16 00:39:29;;;;;;;111.50;16.60;;;;;;;3.93;86.44;93129.19;5091677;28;20027;-34
2022/11/16 00:41:55;;;;;;;99.47;15.30;;;;;;;4.00;85.32;93122.41;5091501;28;20056;-34
2022/11/16 00:44:20;;;;;;;76.32;12.75;;;;;;;4.02;84.35;93128.09;5091059;28;20512;-34
2022/11/16 00:46:45;;;;;;;147.50;15.90;;;;;;;3.99;84.04;93121.66;5091156;28;20074;-34
2022/11/16 00:49:11;;;;;;;61.00;13.60;;;;;;;4.01;84.23;93118.41;5091269;28;20024;-34
2022/11/16 00:51:37;;;;;;;62.65;13.75;;;;;;;3.99;84.57;93127.13;5091047;28;20031;-34
2022/11/16 00:54:04;;;;;;;59.72;14.55;;;;;;;4.07;84.82;93114.38;5091181;28;20016;-34
2022/11/16 00:56:29;;;;;;;41.20;14.65;;;;;;;4.01;85.00;93113.69;5091341;28;20020;-34
2022/11/16 00:58:55;;;;;;;190.45;18.70;;;;;;;4.08;85.15;93115.13;5091217;28;20465;-34
2022/11/16 01:01:20;;;;;;;106.53;16.38;;;;;;;4.11;84.62;93109.38;5090943;28;20458;-34
2022/11/16 01:03:46;;;;;;;172.55;18.55;;;;;;;4.11;84.11;93094.97;5090966;28;20028;-34
2022/11/16 01:06:14;;;;;;;106.40;15.00;;;;;;;4.14;84.02;93113.78;5090832;28;20499;-34
2022/11/16 01:08:40;;;;;;;57.75;14.30;;;;;;;3.97;83.80;93104.31;5091035;28;20020;-34
2022/11/16 01:13:51;;;;;;;53.53;13.00;;;;;;;3.70;84.03;93095.91;5091137;28;20061;-34
2022/11/16 01:16:18;;;;;;;76.28;13.45;;;;;;;3.45;84.13;93082.78;5090835;28;20051;-34
2022/11/16 01:18:47;;;;;;;58.58;13.13;;;;;;;3.34;84.78;93088.34;5090930;28;20024;-34
2022/11/16 01:21:13;;;;;;;67.22;14.07;;;;;;;3.32;85.07;93090.84;5090707;28;20153;-34
2022/11/16 01:23:38;;;;;;;151.77;14.93;;;;;;;3.21;85.48;93090.97;5090940;28;20032;-34
2022/11/16 01:26:04;;;;;;;66.53;13.77;;;;;;;3.12;85.71;93092.03;5090525;28;20480;-34
2022/11/16 01:28:30;;;;;;;120.25;16.73;;;;;;;3.27;85.22;93088.94;5090507;28;20511;-34
2022/11/16 01:30:55;;;;;;;62.55;12.73;;;;;;;3.24;84.80;93090.69;5090346;28;20081;-34
2022/11/16 01:33:21;;;;;;;75.75;13.63;;;;;;;3.36;84.53;93077.66;5090815;28;20020;-34
2022/11/16 01:35:46;;;;;;;102.25;12.70;;;;;;;3.35;84.52;93076.22;5090536;28;20047;-34
2022/11/16 01:38:12;;;;;;;64.38;12.15;;;;;;;3.33;84.14;93084.16;5090272;28;20027;-34
2022/11/16 01:40:38;;;;;;;42.08;10.38;;;;;;;3.18;85.13;93076.38;5090436;28;20031;-34
2022/11/16 01:43:17;;;;;;;89.32;11.63;;;;;;;3.15;84.92;93080.09;5090661;28;20480;-34
2022/11/16 01:45:43;;;;;;;44.58;11.75;;;;;;;3.15;84.98;93073.91;5090185;28;20052;-33
2022/11/16 01:48:25;;;;;;;98.07;11.88;;;;;;;3.23;84.85;93080.31;5090295;28;20020;-34
2022/11/16 01:50:51;;;;;;;75.63;10.68;;;;;;;3.15;84.31;93073.91;5072439;28;20047;-34
2022/11/16 01:53:19;;;;;;;72.47;11.15;;;;;;;2.97;84.23;93061.66;5072322;28;20069;-34
2022/11/16 01:55:46;;;;;;;90.22;10.68;;;;;;;2.98;84.10;93069.34;5072613;28;20027;-34
2022/11/16 01:58:15;;;;;;;36.50;10.32;;;;;;;2.98;83.76;93061.19;5090405;28;20438;-33
2022/11/16 02:00:40;;;;;;;105.82;12.38;;;;;;;3.02;83.92;93060.88;5072381;28;20044;-34
2022/11/16 02:03:06;;;;;;;72.43;10.80;;;;;;;3.11;84.00;93062.53;5090458;28;20480;-34
2022/11/16 02:06:14;;;;;;;109.43;13.23;;;;;;;3.10;83.67;93061.06;5090100;28;20389;-34
2022/11/16 02:11:45;;;;;;;38.65;11.98;;;;;;;2.86;84.94;93059.78;5090147;28;20486;-34
2022/11/16 02:14:41;;;;;;;30.70;10.45;;;;;;;2.72;85.62;93058.16;5090025;28;20020;-34
2022/11/16 02:17:47;;;;;;;74.93;12.32;;;;;;;2.74;85.68;93069.31;5090078;28;20385;-34
2022/11/16 02:20:32;;;;;;;68.55;13.02;;;;;;;2.61;85.74;93071.88;5040339;28;20091;-34
2022/11/16 02:23:17;;;;;;;84.80;13.85;;;;;;;2.74;86.25;93063.84;5090019;28;20024;-34
2022/11/16 02:25:52;;;;;;;61.13;9.70;;;;;;;2.70;85.51;93059.91;5089545;28;20032;-34
2022/11/16 02:28:47;;;;;;;62.08;10.23;;;;;;;2.57;85.17;93054.31;5072202;28;20035;-34
2022/11/16 02:31:21;;;;;;;80.38;11.13;;;;;;;2.52;85.66;93063.25;5069930;28;20440;-34
2022/11/16 02:33:48;;;;;;;91.40;11.35;;;;;;;2.62;84.52;93056.28;5069648;28;20029;-34
2022/11/16 02:36:16;;;;;;;90.47;11.10;;;;;;;2.58;83.89;93034.00;5067512;28;20158;-34
2022/11/16 02:38:49;;;;;;;37.30;10.33;;;;;;;2.53;83.81;93024.63;5071986;28;20030;-34
2022/11/16 02:41:17;;;;;;;76.57;10.90;;;;;;;2.66;84.04;93038.41;5089850;28;20023;-34
2022/11/16 02:43:46;;;;;;;74.32;11.55;;;;;;;2.65;84.54;93038.88;5071793;28;20111;-34
2022/11/16 02:46:17;;;;;;;57.70;9.45;;;;;;;2.67;84.33;93036.38;5071567;28;20048;-34
2022/11/16 02:48:48;;;;;;;90.20;11.05;;;;;;;2.60;84.44;93026.78;5054924;28;20109;-34
2022/11/16 02:51:13;;;;;;;112.88;12.32;;;;;;;2.55;83.98;93026.84;5071759;28;20093;-34
2022/11/16 02:53:57;;;;;;;62.85;10.52;;;;;;;2.57;85.15;93030.53;5089989;28;20507;-34
2022/11/16 02:56:22;;;;;;;41.40;8.73;;;;;;;2.72;84.72;93027.44;5071930;28;20024;-33
2022/11/16 02:58:51;;;;;;;76.80;11.35;;;;;;;2.67;83.77;93020.78;5090598;28;20050;-33
2022/11/16 03:01:40;;;;;;;52.05;9.88;;;;;;;2.58;83.87;93021.09;5075277;28;20024;-34
2022/11/16 03:04:18;;;;;;;48.97;10.93;;;;;;;2.46;84.82;93019.72;5075124;28;20031;-34
2022/11/16 03:06:45;;;;;;;34.78;11.77;;;;;;;2.49;84.48;93020.69;5075133;28;20028;-34
2022/11/16 03:09:14;;;;;;;47.50;13.73;;;;;;;2.39;84.41;93025.69;5075328;28;20050;-34
2022/11/16 03:12:00;;;;;;;;;;;;;;;2.52;84.05;93016.94;5075646;28;20103;-34
2022/11/16 03:14:38;;;;;;;86.60;12.88;;;;;;;2.35;83.87;93022.53;5078067;28;19912;-34
2022/11/16 03:17:09;;;;;;;66.13;11.57;;;;;;;2.36;84.92;93023.97;5093041;28;20024;-33
2022/11/16 03:19:52;;;;;;;51.83;10.77;;;;;;;2.17;84.84;93018.41;5075219;28;20113;-34
2022/11/16 03:22:29;;;;;;;60.80;10.73;;;;;;;2.19;85.16;93018.66;5075230;28;20047;-34
2022/11/16 03:24:54;;;;;;;45.60;10.35;;;;;;;2.08;85.93;93026.19;5074334;28;20523;-33
2022/11/16 03:27:51;;;;;;;63.75;10.52;;;;;;;2.07;85.92;93022.69;5093086;28;20020;-33
2022/11/16 03:30:24;;;;;;;48.45;7.57;;;;;;;2.06;86.26;93010.31;5074887;28;20383;-34
2022/11/16 03:33:31;;;;;;;118.82;10.52;;;;;;;2.12;84.55;93002.84;5092593;28;20400;-34
2022/11/16 03:36:17;;;;;;;63.75;7.47;;;;;;;2.11;85.07;92997.91;5081714;28;20508;-34
2022/11/16 03:38:44;;;;;;;51.72;8.35;;;;;;;2.06;85.55;92985.06;5074475;28;20024;-34
2022/11/16 03:41:11;;;;;;;36.92;7.07;;;;;;;2.20;85.26;92994.91;5092865;28;20416;-34
2022/11/16 03:43:37;;;;;;;93.68;8.43;;;;;;;2.01;85.65;92974.97;5074738;28;20404;-33
2022/11/16 03:46:03;;;;;;;53.78;8.20;;;;;;;2.16;85.96;92994.44;5074232;28;20048;-34
2022/11/16 03:48:37;;;;;;;73.43;7.45;;;;;;;2.26;85.47;92988.16;5092750;28;20023;-34
2022/11/16 03:51:03;;;;;;;63.30;8.38;;;;;;;2.27;86.45;92983.47;5092199;28;20059;-34
2022/11/16 03:53:28;;;;;;;74.53;7.88;;;;;;;2.35;85.15;92976.22;5092289;28;20523;-34
2022/11/16 03:55:54;;;;;;;52.72;6.97;;;;;;;2.33;85.17;92975.97;5092455;28;20024;-33
2022/11/16 03:58:19;;;;;;;28.67;6.90;;;;;;;2.34;84.11;92974.72;5092533;28;20492;-33
2022/11/16 04:00:44;;;;;;;23.48;7.15;;;;;;;2.19;84.52;92977.81;5092365;28;20027;-33
2022/11/16 04:03:10;;;;;;;52.67;7.95;;;;;;;2.29;84.67;92978.25;5092093;28;20024;-34
2022/11/16 04:24:54;;;;;;;79.57;8.10;;;;;;;2.14;86.01;92962.22;5076332;28;20035;-33
2022/11/16 04:30:07;;;;;;;76.43;9.30;;;;;;;2.15;85.45;92954.81;5091688;28;20561;-34
2022/11/16 04:38:00;;;;;;;124.50;11.35;;;;;;;2.25;85.82;92964.88;5091786;28;20035;-34
2022/11/16 04:40:28;;;;;;;133.20;11.27;;;;;;;2.29;85.38;92959.91;5091367;28;20020;-34
2022/11/16 04:42:58;;;;;;;138.32;9.82;;;;;;;2.36;85.28;92958.59;5091570;28;20415;-34
2022/11/16 04:48:10;;;;;;;73.10;9.30;;;;;;;2.08;85.30;92969.00;5091383;28;20465;-33
2022/11/16 04:50:36;;;;;;;76.80;10.95;;;;;;;1.76;86.23;92963.25;5090945;28;20105;-34
2022/11/16 04:53:01;;;;;;;47.90;8.85;;;;;;;1.77;87.13;92963.97;5091171;28;20028;-34
2022/11/16 04:55:27;;;;;;;69.68;9.75;;;;;;;1.67;87.67;92963.53;5091437;28;20031;-34
2022/11/16 04:57:52;;;;;;;38.72;9.00;;;;;;;1.73;87.31;92963.50;5091140;28;20530;-33
2022/11/16 05:00:18;;;;;;;47.58;11.32;;;;;;;1.79;87.60;92959.53;5091379;28;20102;-34
2022/11/16 05:02:44;;;;;;;29.95;8.10;;;;;;;1.83;87.03;92954.53;5090860;28;20570;-34
2022/11/16 05:05:09;;;;;;;42.33;8.30;;;;;;;1.76;86.56;92933.31;5091042;28;20019;-34
2022/11/16 05:07:35;;;;;;;61.20;9.55;;;;;;;1.93;86.47;92946.78;5090836;28;20035;-34
2022/11/16 05:10:07;;;;;;;54.67;7.60;;;;;;;2.00;85.73;92955.16;5090834;28;20058;-33
2022/11/16 05:12:33;;;;;;;33.05;7.13;;;;;;;2.03;85.77;92953.44;5090836;28;20042;-33
2022/11/16 05:15:01;;;;;;;43.35;9.18;;;;;;;1.96;85.54;92951.97;5090712;28;20027;-33
2022/11/16 05:17:27;;;;;;;48.70;9.27;;;;;;;2.06;85.91;92950.41;5091039;28;20030;-33
2022/11/16 05:22:37;;;;;;;22.95;9.57;;;;;;;1.94;86.17;92954.47;5090106;28;20031;-34
2022/11/16 05:25:04;;;;;;;31.85;9.57;;;;;;;1.92;86.37;92956.97;5090275;28;20028;-34
2022/11/16 05:27:29;;;;;;;40.22;10.07;;;;;;;1.77;86.53;92950.38;5090609;28;20109;-34
2022/11/16 05:29:55;;;;;;;20.98;8.48;;;;;;;1.69;85.30;92938.56;5090639;28;20048;-33
2022/11/16 05:32:22;;;;;;;27.38;10.43;;;;;;;1.83;85.31;92945.63;5090841;28;20623;-33
2022/11/16 05:34:47;;;;;;;17.92;10.25;;;;;;;1.86;84.56;92939.19;5090714;28;20019;-34
2022/11/16 05:37:13;;;;;;;22.30;10.45;;;;;;;1.83;84.58;92948.34;5090732;28;20439;-34
2022/11/16 05:39:38;;;;;;;28.60;9.43;;;;;;;1.87;84.52;92927.78;5090764;28;20024;-34
2022/11/16 05:42:05;;;;;;;27.13;8.48;;;;;;;1.98;84.66;92946.03;5090375;28;20480;-34
2022/11/16 05:44:30;;;;;;;17.25;8.00;;;;;;;2.10;84.40;92936.56;5090223;28;20055;-34
2022/11/16 05:46:56;;;;;;;10.50;7.40;;;;;;;2.01;85.07;92942.31;5090501;28;20032;-33
2022/11/16 05:49:21;;;;;;;44.45;17.60;;;;;;;2.17;84.93;92935.97;5090347;28;20039;-33
2022/11/16 05:51:47;;;;;;;73.65;13.48;;;;;;;2.31;84.67;92943.06;5090512;28;20048;-34
2022/11/16 05:54:17;;;;;;;41.42;16.27;;;;;;;2.32;84.27;92949.25;5090279;28;20484;-34
2022/11/16 05:56:43;;;;;;;104.40;36.58;;;;;;;2.43;84.73;92940.97;5090210;28;20031;-33
2022/11/16 05:59:12;;;;;;;56.65;18.77;;;;;;;2.28;84.71;92936.63;5090279;28;20020;-33
2022/11/16 06:01:37;;;;;;;30.20;15.60;;;;;;;2.22;84.98;92949.56;5090545;28;20077;-34
2022/11/16 06:04:03;;;;;;;53.30;17.25;;;;;;;2.30;85.65;92952.47;5090258;28;20016;-34
2022/11/16 06:06:29;;;;;;;44.25;11.82;;;;;;;2.46;84.83;92950.84;5090187;28;20073;-33
2022/11/16 06:08:54;;;;;;;57.72;10.60;;;;;;;2.46;84.78;92945.41;5090086;28;20031;-34
2022/11/16 06:11:20;;;;;;;86.13;12.52;;;;;;;2.49;85.18;92944.41;5090086;28;20031;-33
2022/11/16 06:13:46;;;;;;;113.95;14.73;;;;;;;2.60;84.96;92952.47;5090070;28;20054;-34
2022/11/16 06:16:12;;;;;;;102.38;14.27;;;;;;;2.62;84.50;92958.16;5090372;28;20020;-33
2022/11/16 06:18:39;;;;;;;95.57;13.98;;;;;;;2.57;84.73;92948.78;5090264;28;20030;-34
2022/11/16 06:21:06;;;;;;;105.57;12.13;;;;;;;2.54;85.69;92944.34;5089948;28;20024;-34
2022/11/16 06:23:31;;;;;;;73.75;10.93;;;;;;;2.45;85.26;92941.94;5090130;28;20023;-34
2022/11/16 06:25:57;;;;;;;54.40;10.52;;;;;;;2.52;85.48;92943.38;5089897;28;20028;-33
2022/11/16 06:28:23;;;;;;;18.83;10.32;;;;;;;2.34;86.20;92944.75;5090022;28;20458;-34
2022/11/16 06:30:49;;;;;;;25.75;11.13;;;;;;;2.30;86.25;92925.22;5089675;28;20020;-34
2022/11/16 06:33:15;;;;;;;33.42;15.68;;;;;;;2.56;86.95;92939.13;5090093;28;20020;-34
2022/11/16 06:35:41;;;;;;;25.05;14.13;;;;;;;2.70;87.30;92948.91;5093755;28;20024;-34
2022/11/16 06:38:06;;;;;;;31.35;15.48;;;;;;;2.89;86.84;92957.16;5094011;28;20055;-34
2022/11/16 06:40:32;;;;;;;27.10;14.07;;;;;;;2.99;86.97;92953.56;5094053;28;20099;-34
2022/11/16 06:42:58;;;;;;;19.33;10.60;;;;;;;3.12;86.81;92952.22;5075705;28;20016;-34
2022/11/16 06:45:25;;;;;;;48.83;9.82;;;;;;;3.23;85.54;92949.38;5093465;28;20193;-34
2022/11/16 06:47:50;;;;;;;27.45;10.32;;;;;;;3.23;84.83;92955.53;5093959;28;20073;-33
2022/11/16 06:50:19;;;;;;;47.47;14.55;;;;;;;3.35;85.09;92947.97;5093468;28;20445;-34
2022/11/16 06:52:48;;;;;;;39.22;17.08;;;;;;;3.46;84.91;92954.03;5093462;28;20502;-34
2022/11/16 06:55:14;;;;;;;40.45;18.63;;;;;;;3.55;84.58;92944.75;5093526;28;20028;-34
2022/11/16 06:57:39;;;;;;;49.05;21.08;;;;;;;3.67;84.35;92944.09;5093772;28;20028;-34
2022/11/16 07:00:06;;;;;;;49.95;20.00;;;;;;;3.62;84.31;92942.16;5093354;28;20553;-34
2022/11/16 07:02:32;;;;;;;36.80;15.65;;;;;;;3.67;84.20;92951.53;5093623;28;20119;-34
2022/11/16 07:04:58;;;;;;;38.97;13.82;;;;;;;3.67;84.27;92948.81;5093165;28;20195;-34
2022/11/16 07:07:23;;;;;;;47.85;16.20;;;;;;;3.79;84.22;92941.94;5093527;28;20031;-34
2022/11/16 07:09:49;;;;;;;53.05;19.13;;;;;;;3.84;84.34;92941.13;5093100;28;20024;-33
2022/11/16 07:12:14;;;;;;;47.08;19.48;;;;;;;3.97;83.91;92938.47;5093443;28;20020;-34
2022/11/16 07:14:40;;;;;;;47.38;17.45;;;;;;;4.03;83.36;92943.84;5093025;28;20016;-34
2022/11/16 07:17:05;;;;;;;42.75;19.50;;;;;;;4.08;83.45;92948.47;5092906;28;20036;-34
2022/11/16 07:19:31;;;;;;;48.05;18.45;;;;;;;4.16;83.87;92958.28;5093367;28;20077;-34
2022/11/16 07:21:56;;;;;;;47.42;18.80;;;;;;;4.27;84.03;92952.66;5092962;28;20020;-34
2022/11/16 07:24:22;;;;;;;64.68;19.00;;;;;;;4.16;83.74;92935.72;5093286;28;20077;-34
2022/11/16 07:26:47;;;;;;;59.17;17.58;;;;;;;4.41;83.82;92948.00;5092790;28;20028;-34
2022/11/16 07:29:14;;;;;;;58.83;17.88;;;;;;;4.45;83.68;92942.94;5092828;28;20020;-33
2022/11/16 07:31:40;;;;;;;57.42;21.38;;;;;;;4.50;84.09;92934.66;5093045;28;20108;-34
2022/11/16 07:34:05;;;;;;;54.45;23.13;;;;;;;4.58;84.48;92941.00;5092968;28;20415;-33
2022/11/16 07:36:31;;;;;;;59.47;24.02;;;;;;;4.49;85.29;92924.97;5093043;28;20111;-34
2022/11/16 07:38:56;;;;;;;52.10;19.42;;;;;;;4.39;85.42;92928.63;5092482;28;20028;-34
2022/11/16 07:41:22;;;;;;;60.38;23.02;;;;;;;4.43;86.26;92929.06;5092662;28;20024;-34
2022/11/16 07:43:47;;;;;;;47.72;21.00;;;;;;;4.58;86.90;92924.59;5092856;28;20024;-34
2022/11/16 07:46:18;;;;;;;57.85;25.17;;;;;;;4.80;86.91;92922.72;5091901;28;20101;-34
2022/11/16 07:48:44;;;;;;;58.28;21.42;;;;;;;4.94;87.25;92927.69;5092438;28;20492;-34
2022/11/16 07:51:11;;;;;;;78.05;29.48;;;;;;;5.08;87.09;92914.75;5092334;28;20042;-34
2022/11/16 07:53:37;;;;;;;52.00;25.80;;;;;;;5.24;87.14;92913.72;5092305;28;20028;-34
2022/11/16 07:56:03;;;;;;;69.78;30.50;;;;;;;5.39;86.86;92922.13;5092303;28;20028;-34
2022/11/16 07:58:32;;;;;;;60.40;23.35;;;;;;;5.52;86.18;92915.88;5092573;28;20098;-34
2022/11/16 08:01:11;;;;;;;52.72;21.23;;;;;;;5.61;85.40;92913.44;5092085;28;20484;-34
2022/11/16 08:03:37;;;;;;;71.93;28.08;;;;;;;5.70;84.93;92907.53;5092118;28;20431;-34
2022/11/16 08:06:05;;;;;;;85.95;29.70;;;;;;;5.88;84.22;92906.66;5092111;28;20028;-34
2022/11/16 08:08:31;;;;;;;61.70;26.58;;;;;;;6.01;83.52;92903.88;5092385;28;20051;-34
2022/11/16 08:11:01;;;;;;;65.25;25.30;;;;;;;6.12;83.60;92900.16;5092170;28;20389;-34
2022/11/16 08:13:27;;;;;;;69.05;31.15;;;;;;;6.25;83.73;92899.38;5091875;28;20054;-34
2022/11/16 08:15:52;;;;;;;59.92;24.23;;;;;;;6.36;83.79;92908.06;5091991;28;20496;-34
2022/11/16 08:18:18;;;;;;;60.65;24.10;;;;;;;6.44;83.63;92903.38;5091930;28;20027;-34
2022/11/16 08:20:44;;;;;;;53.00;21.50;;;;;;;6.46;83.58;92891.88;5091737;28;20012;-34
2022/11/16 08:23:10;;;;;;;54.75;20.08;;;;;;;6.57;83.49;92895.09;5091851;28;20027;-34
2022/11/16 08:25:38;;;;;;;64.45;20.85;;;;;;;6.59;83.21;92891.81;5091422;28;20050;-34
2022/11/16 08:28:04;;;;;;;74.10;24.27;;;;;;;6.58;83.59;92895.81;5091764;28;20027;-34
2022/11/16 08:30:29;;;;;;;76.65;29.50;;;;;;;6.61;83.79;92892.00;5091773;28;20028;-34
2022/11/16 08:32:54;;;;;;;93.80;37.30;;;;;;;6.62;83.53;92890.75;5091384;28;20024;-34
2022/11/16 08:35:21;;;;;;;115.53;46.92;;;;;;;6.63;84.20;92886.72;5091657;28;20081;-34
2022/11/16 08:37:46;;;;;;;75.28;32.97;;;;;;;6.70;84.23;92886.78;5091523;28;20019;-34
2022/11/16 08:40:13;;;;;;;88.95;28.88;;;;;;;6.75;84.77;92887.91;5091750;28;20404;-34
2022/11/16 08:42:38;;;;;;;80.00;28.17;;;;;;;6.92;84.87;92880.00;5091323;28;20024;-34
2022/11/16 08:45:04;;;;;;;65.00;25.42;;;;;;;7.00;84.55;92883.50;5091202;28;20047;-34
2022/11/16 08:47:30;;;;;;;59.67;25.45;;;;;;;7.08;84.61;92881.53;5091647;28;20470;-34
2022/11/16 08:49:56;;;;;;;74.97;29.13;;;;;;;7.24;84.72;92879.63;5091409;28;20028;-34
2022/11/16 08:52:21;;;;;;;56.00;23.48;;;;;;;7.22;84.30;92874.69;5073285;28;20020;-34
2022/11/16 08:54:48;;;;;;;59.85;23.17;;;;;;;7.28;84.21;92875.25;5091361;28;20075;-34
2022/11/16 08:57:14;;;;;;;51.15;20.40;;;;;;;7.21;85.03;92883.47;5090307;28;20476;-34
2022/11/16 08:59:39;;;;;;;35.92;16.80;;;;;;;7.14;84.92;92875.91;5091121;28;20058;-34
2022/11/16 09:02:05;;;;;;;41.47;18.50;;;;;;;7.30;84.88;92877.44;5091060;28;20035;-34
2022/11/16 09:04:30;;;;;;;39.08;18.42;;;;;;;7.35;85.13;92874.56;5091116;28;20024;-34
2022/11/16 09:06:56;;;;;;;40.90;17.55;;;;;;;7.34;85.08;92878.56;5090757;28;20400;-34
2022/11/16 09:09:21;;;;;;;40.05;18.42;;;;;;;7.41;85.33;92882.63;5090823;28;20028;-34
2022/11/16 09:11:47;;;;;;;53.42;17.15;;;;;;;7.32;84.75;92872.19;5090840;28;20085;-34
2022/11/16 09:18:56;;;;;;;39.25;17.88;;;;;;;7.20;85.98;92869.00;5068027;27;1314768;-34
2022/11/16 09:21:23;;;;;;;43.00;17.77;;;;;;;7.22;86.70;92860.94;5087990;28;20044;-34
2022/11/16 09:23:49;;;;;;;37.10;18.42;;;;;;;7.36;86.94;92856.81;5087718;28;20115;-34
2022/11/16 09:26:17;;;;;;;38.72;17.73;;;;;;;7.43;86.07;92853.38;5087486;28;20119;-34
2022/11/16 09:28:43;;;;;;;35.33;17.67;;;;;;;7.44;85.86;92851.34;5087460;28;20511;-34
2022/11/16 09:31:09;;;;;;;40.15;18.70;;;;;;;7.45;86.44;92853.56;5087407;28;20056;-34
2022/11/16 09:33:34;;;;;;;33.33;15.68;;;;;;;7.61;85.97;92849.59;5087760;28;20039;-34
2022/11/16 09:36:05;;;;;;;29.80;16.23;;;;;;;7.76;85.41;92840.66;5087448;28;20447;-34
2022/11/16 09:38:31;;;;;;;29.98;15.25;;;;;;;7.75;84.57;92830.97;5087343;28;20032;-34
2022/11/16 09:40:56;;;;;;;38.05;17.63;;;;;;;7.88;84.39;92839.06;5087619;28;20036;-34
2022/11/16 09:43:52;;;;;;;26.13;16.08;;;;;;;7.96;83.67;92822.56;5087334;28;20093;-34
2022/11/16 09:46:33;;;;;;;29.08;16.20;;;;;;;7.96;82.93;92831.56;5087209;28;20036;-34
2022/11/16 09:49:00;;;;;;;39.42;19.85;;;;;;;8.04;83.67;92826.06;5087118;28;20412;-34
2022/11/16 09:51:31;;;;;;;32.45;18.23;;;;;;;8.28;83.23;92820.09;5087412;28;20028;-34
2022/11/16 09:54:04;;;;;;;31.80;18.27;;;;;;;8.51;82.23;92820.09;5087444;28;20020;-34
2022/11/16 09:56:34;;;;;;;27.40;16.42;;;;;;;8.62;81.55;92814.94;5085807;28;20024;-34
2022/11/16 09:59:11;;;;;;;27.98;17.08;;;;;;;8.79;80.36;92809.59;5085804;28;20507;-34
2022/11/16 10:01:52;;;;;;;35.03;17.33;;;;;;;9.08;79.49;92796.34;5085796;28;20032;-34
2022/11/16 10:04:37;;;;;;;24.83;14.38;;;;;;;9.34;78.71;92795.16;5087105;28;20066;-34
2022/11/16 10:07:19;;;;;;;27.98;14.80;;;;;;;9.62;77.21;92779.06;5084593;28;20039;-34
2022/11/16 10:09:45;;;;;;;25.50;15.07;;;;;;;10.27;75.57;92777.03;5085736;28;20042;-34
2022/11/16 10:12:32;;;;;;;27.48;15.50;;;;;;;10.91;73.58;92767.13;5087083;28;20032;-34
2022/11/16 10:15:32;;;;;;;33.72;19.60;;;;;;;12.71;68.78;92772.31;5085469;28;20058;-34
2022/11/16 10:18:06;;;;;;;19.23;13.27;;;;;;;13.93;60.89;92765.25;5094994;28;20064;-34
2022/11/16 10:20:47;;;;;;;21.42;13.98;;;;;;;14.67;58.82;92753.78;5088812;28;20032;-34
2022/11/16 10:23:24;;;;;;;19.88;13.70;;;;;;;15.48;55.55;92745.25;5107019;28;20055;-34
2022/11/16 10:25:57;;;;;;;21.88;13.27;;;;;;;15.11;54.54;92742.88;5106518;28;20023;-34
2022/11/16 10:28:52;;;;;;;21.00;13.07;;;;;;;14.61;55.77;92747.81;5104051;28;20028;-34
2022/11/16 10:31:20;;;;;;;22.17;14.18;;;;;;;14.32;56.91;92747.94;5055423;28;20041;-34
2022/11/16 10:33:48;;;;;;;23.03;15.50;;;;;;;14.25;57.47;92739.75;5072863;28;20032;-34
2022/11/16 10:36:14;;;;;;;23.00;14.68;;;;;;;14.30;57.71;92736.69;5055407;28;20028;-34
2022/11/16 10:38:41;;;;;;;34.17;18.55;;;;;;;15.50;55.56;92737.03;5072605;28;20107;-34
2022/11/16 10:41:13;;;;;;;23.42;13.93;;;;;;;16.95;51.57;92732.84;5055288;28;20052;-34
2022/11/16 10:43:39;;;;;;;19.55;13.63;;;;;;;17.24;48.95;92735.19;5072997;28;20393;-34
2022/11/16 10:46:12;;;;;;;16.33;10.93;;;;;;;16.75;49.12;92734.41;5072698;28;20033;-34
2022/11/16 10:48:56;;;;;;;17.58;12.13;;;;;;;16.00;51.07;92729.09;5054705;28;20032;-34
2022/11/16 10:51:22;;;;;;;20.27;13.50;;;;;;;15.70;52.66;92719.56;5072612;28;20492;-34
2022/11/16 10:53:48;;;;;;;18.98;13.52;;;;;;;15.33;53.72;92713.00;5072562;28;20055;-34
2022/11/16 10:56:16;;;;;;;18.90;12.38;;;;;;;14.87;55.19;92713.47;5072769;28;20028;-34
2022/11/16 10:59:08;;;;;;;22.85;15.27;;;;;;;14.45;56.44;92718.94;5054582;28;20100;-34
2022/11/16 11:01:56;;;;;;;20.00;13.45;;;;;;;14.17;57.57;92711.41;5080663;28;20031;-34
2022/11/16 11:04:22;;;;;;;27.63;16.55;;;;;;;13.82;58.11;92713.16;5092694;28;20031;-34
2022/11/16 11:06:56;;;;;;;31.55;18.05;;;;;;;13.73;59.27;92709.06;5092333;28;20036;-34
2022/11/16 11:09:27;;;;;;;32.65;19.10;;;;;;;13.64;59.66;92702.22;5092756;28;20153;-34
2022/11/16 11:15:11;;;;;;;43.72;22.05;;;;;;;13.52;60.26;92695.81;5092588;28;20116;-34
2022/11/16 11:17:46;;;;;;;31.38;17.88;;;;;;;13.24;60.80;92695.84;5092121;28;20051;-34
2022/11/16 11:20:14;;;;;;;27.60;15.93;;;;;;;13.06;61.24;92686.22;5092245;28;20484;-34
2022/11/16 11:22:52;;;;;;;25.80;16.67;;;;;;;12.99;61.41;92679.50;5092227;28;20031;-34
2022/11/16 11:25:26;;;;;;;35.33;20.90;;;;;;;12.98;61.30;92669.72;5092017;28;20028;-34
2022/11/16 11:28:04;;;;;;;39.25;20.33;;;;;;;12.95;62.05;92676.41;5092054;28;20032;-34
2022/11/16 11:30:29;;;;;;;32.30;20.67;;;;;;;12.85;62.21;92672.91;5091916;28;20024;-34
2022/11/16 11:32:56;;;;;;;27.83;17.05;;;;;;;12.86;62.40;92663.31;5092160;28;20043;-34
2022/11/16 11:35:26;;;;;;;26.35;15.38;;;;;;;13.10;62.15;92667.13;5091913;28;20024;-35
2022/11/16 11:37:54;;;;;;;18.20;12.15;;;;;;;13.22;60.70;92652.09;5092157;28;20047;-34
2022/11/16 11:40:27;;;;;;;23.13;14.40;;;;;;;13.63;60.59;92644.56;5072938;28;20057;-34
2022/11/16 11:42:55;;;;;;;19.05;12.98;;;;;;;14.18;58.97;92646.25;5091720;28;20126;-34
2022/11/16 11:45:31;;;;;;;20.63;13.57;;;;;;;14.55;57.58;92643.91;5091828;28;20024;-34
2022/11/16 11:48:01;;;;;;;23.95;13.95;;;;;;;14.56;56.56;92634.22;5073699;28;20681;-34
2022/11/16 11:50:46;;;;;;;16.70;9.75;;;;;;;14.18;56.47;92629.59;5091585;28;20055;-34
2022/11/16 11:53:38;;;;;;;18.15;11.15;;;;;;;13.91;57.93;92618.75;5091915;28;20458;-34
2022/11/16 11:56:04;;;;;;;18.55;12.07;;;;;;;13.95;58.42;92621.06;5091525;28;20028;-34
2022/11/16 11:58:33;;;;;;;18.33;11.75;;;;;;;14.04;58.29;92609.22;5073234;28;20089;-34
2022/11/16 12:01:13;;;;;;;23.30;13.63;;;;;;;14.07;58.57;92611.53;5073504;28;20028;-34
2022/11/16 12:03:52;;;;;;;18.80;12.52;;;;;;;14.07;58.13;92605.25;5091583;28;20401;-34
2022/11/16 12:06:22;;;;;;;16.63;11.68;;;;;;;14.04;58.18;92600.88;5091577;28;20069;-34
2022/11/16 12:09:13;;;;;;;18.58;12.20;;;;;;;14.00;58.02;92598.56;5073066;28;20502;-34
2022/11/16 12:11:49;;;;;;;23.88;13.70;;;;;;;14.00;58.36;92595.78;5077583;28;20496;-34
2022/11/16 12:14:26;;;;;;;30.63;15.27;;;;;;;13.87;59.65;92601.09;5073285;28;20415;-34
2022/11/16 12:17:36;;;;;;;31.20;14.30;;;;;;;13.94;59.45;92591.88;5091034;28;20056;-34
2022/11/16 12:20:07;;;;;;;21.95;12.75;;;;;;;13.95;58.98;92598.88;5091174;28;20101;-34
2022/11/16 12:22:57;;;;;;;22.10;13.77;;;;;;;13.92;58.99;92592.47;5091160;28;20503;-34